sensor_id;sensor_type;location;lat;lon;timestamp;temperature;humidity
21518;DHT22;61765;45.794;24.150;2022-07-09T00:02:19;21.90;99.90
21518;DHT22;61765;45.794;24.150;2022-07-09T00:06:25;21.90;99.90
21518;DHT22;61765;45.794;24.150;2022-07-09T00:10:31;21.90;99.90
21518;DHT22;61765;45.794;24.150;2022-07-09T00:14:36;21.90;99.90
21518;DHT22;61765;45.794;24.150;2022-07-09T00:18:44;21.90;99.90
21518;DHT22;61765;45.794;24.150;2022-07-09T00:22:49;21.90;99.90
21518;DHT22;61765;45.794;24.150;2022-07-09T00:26:55;21.80;99.90
21518;DHT22;61765;45.794;24.150;2022-07-09T00:31:02;21.70;99.90
21518;DHT22;61765;45.794;24.150;2022-07-09T00:35:10;21.70;99.90
21518;DHT22;61765;45.794;24.150;2022-07-09T00:39:16;21.70;99.90
21518;DHT22;61765;45.794;24.150;2022-07-09T00:43:22;21.70;99.90
21518;DHT22;61765;45.794;24.150;2022-07-09T00:47:28;21.70;99.90
21518;DHT22;61765;45.794;24.150;2022-07-09T00:51:36;21.70;99.90
21518;DHT22;61765;45.794;24.150;2022-07-09T00:55:44;21.60;99.90
21518;DHT22;61765;45.794;24.150;2022-07-09T00:59:52;21.70;99.90
21518;DHT22;61765;45.794;24.150;2022-07-09T01:03:57;21.60;99.90
21518;DHT22;61765;45.794;24.150;2022-07-09T01:08:08;21.60;99.90
21518;DHT22;61765;45.794;24.150;2022-07-09T01:12:13;21.50;99.90
21518;DHT22;61765;45.794;24.150;2022-07-09T01:16:19;21.40;99.90
21518;DHT22;61765;45.794;24.150;2022-07-09T01:20:29;21.30;99.90
21518;DHT22;61765;45.794;24.150;2022-07-09T01:24:34;21.30;99.90
21518;DHT22;61765;45.794;24.150;2022-07-09T01:28:40;21.40;99.90
21518;DHT22;61765;45.794;24.150;2022-07-09T01:32:48;21.40;99.90
21518;DHT22;61765;45.794;24.150;2022-07-09T01:36:56;21.40;99.90
21518;DHT22;61765;45.794;24.150;2022-07-09T01:41:01;21.30;99.90
21518;DHT22;61765;45.794;24.150;2022-07-09T01:45:07;21.20;99.90
21518;DHT22;61765;45.794;24.150;2022-07-09T01:49:13;21.20;99.90
21518;DHT22;61765;45.794;24.150;2022-07-09T01:53:21;21.20;99.90
21518;DHT22;61765;45.794;24.150;2022-07-09T01:57:27;21.10;99.90
21518;DHT22;61765;45.794;24.150;2022-07-09T02:01:32;21.20;99.90
21518;DHT22;61765;45.794;24.150;2022-07-09T02:05:37;21.20;99.90
21518;DHT22;61765;45.794;24.150;2022-07-09T02:09:45;21.30;99.90
21518;DHT22;61765;45.794;24.150;2022-07-09T02:13:51;21.30;99.90
21518;DHT22;61765;45.794;24.150;2022-07-09T02:17:57;21.30;99.90
21518;DHT22;61765;45.794;24.150;2022-07-09T02:22:03;21.30;99.90
21518;DHT22;61765;45.794;24.150;2022-07-09T02:26:11;21.20;99.90
21518;DHT22;61765;45.794;24.150;2022-07-09T02:30:17;21.30;99.90
21518;DHT22;61765;45.794;24.150;2022-07-09T02:34:22;21.20;99.90
21518;DHT22;61765;45.794;24.150;2022-07-09T02:38:27;21.20;99.90
21518;DHT22;61765;45.794;24.150;2022-07-09T02:42:36;21.20;99.90
21518;DHT22;61765;45.794;24.150;2022-07-09T02:46:41;21.20;99.90
21518;DHT22;61765;45.794;24.150;2022-07-09T02:50:47;21.20;99.90
21518;DHT22;61765;45.794;24.150;2022-07-09T02:54:53;21.30;99.90
21518;DHT22;61765;45.794;24.150;2022-07-09T02:59:01;21.30;99.90
21518;DHT22;61765;45.794;24.150;2022-07-09T03:03:08;21.20;99.90
21518;DHT22;61765;45.794;24.150;2022-07-09T03:07:13;21.30;99.90
21518;DHT22;61765;45.794;24.150;2022-07-09T03:11:19;21.30;99.90
21518;DHT22;61765;45.794;24.150;2022-07-09T03:15:27;21.20;99.90
21518;DHT22;61765;45.794;24.150;2022-07-09T03:19:33;21.20;99.90
21518;DHT22;61765;45.794;24.150;2022-07-09T03:23:38;21.10;99.90
21518;DHT22;61765;45.794;24.150;2022-07-09T03:27:44;21.10;99.90
21518;DHT22;61765;45.794;24.150;2022-07-09T03:31:52;21.00;99.90
21518;DHT22;61765;45.794;24.150;2022-07-09T03:35:57;21.10;99.90
21518;DHT22;61765;45.794;24.150;2022-07-09T03:40:04;21.10;99.90
21518;DHT22;61765;45.794;24.150;2022-07-09T03:44:09;21.10;99.90
21518;DHT22;61765;45.794;24.150;2022-07-09T03:48:17;21.20;99.90
21518;DHT22;61765;45.794;24.150;2022-07-09T03:52:23;21.20;99.90
21518;DHT22;61765;45.794;24.150;2022-07-09T03:56:28;21.30;99.90
21518;DHT22;61765;45.794;24.150;2022-07-09T04:00:34;21.30;99.90
21518;DHT22;61765;45.794;24.150;2022-07-09T04:04:42;21.40;99.90
21518;DHT22;61765;45.794;24.150;2022-07-09T04:08:48;21.60;99.90
21518;DHT22;61765;45.794;24.150;2022-07-09T04:12:53;21.70;99.90
21518;DHT22;61765;45.794;24.150;2022-07-09T04:17:00;21.80;99.90
21518;DHT22;61765;45.794;24.150;2022-07-09T04:21:08;21.90;99.90
21518;DHT22;61765;45.794;24.150;2022-07-09T04:25:13;22.00;99.90
21518;DHT22;61765;45.794;24.150;2022-07-09T04:29:19;22.20;99.90
21518;DHT22;61765;45.794;24.150;2022-07-09T04:33:24;22.30;99.90
21518;DHT22;61765;45.794;24.150;2022-07-09T04:37:32;22.40;99.90
21518;DHT22;61765;45.794;24.150;2022-07-09T04:41:38;22.40;99.90
21518;DHT22;61765;45.794;24.150;2022-07-09T04:45:43;22.40;99.90
21518;DHT22;61765;45.794;24.150;2022-07-09T04:49:49;22.40;99.90
21518;DHT22;61765;45.794;24.150;2022-07-09T04:53:57;22.30;99.90
21518;DHT22;61765;45.794;24.150;2022-07-09T04:58:02;22.30;99.90
21518;DHT22;61765;45.794;24.150;2022-07-09T05:02:08;22.40;99.90
21518;DHT22;61765;45.794;24.150;2022-07-09T05:06:14;22.20;99.90
21518;DHT22;61765;45.794;24.150;2022-07-09T05:10:39;22.20;99.90
21518;DHT22;61765;45.794;24.150;2022-07-09T05:14:47;22.30;99.90
21518;DHT22;61765;45.794;24.150;2022-07-09T05:18:55;22.30;99.90
21518;DHT22;61765;45.794;24.150;2022-07-09T05:23:00;22.30;99.90
21518;DHT22;61765;45.794;24.150;2022-07-09T05:27:09;22.30;99.90
21518;DHT22;61765;45.794;24.150;2022-07-09T05:31:15;22.30;99.90
21518;DHT22;61765;45.794;24.150;2022-07-09T05:35:37;22.30;99.90
21518;DHT22;61765;45.794;24.150;2022-07-09T05:39:43;22.20;99.90
21518;DHT22;61765;45.794;24.150;2022-07-09T05:43:51;22.30;99.90
21518;DHT22;61765;45.794;24.150;2022-07-09T05:47:57;22.30;99.90
21518;DHT22;61765;45.794;24.150;2022-07-09T05:52:02;22.30;99.90
21518;DHT22;61765;45.794;24.150;2022-07-09T05:56:16;22.50;99.90
21518;DHT22;61765;45.794;24.150;2022-07-09T06:00:30;22.90;99.90
21518;DHT22;61765;45.794;24.150;2022-07-09T06:04:50;23.30;99.90
21518;DHT22;61765;45.794;24.150;2022-07-09T06:08:56;23.60;99.90
21518;DHT22;61765;45.794;24.150;2022-07-09T06:13:02;23.80;99.90
21518;DHT22;61765;45.794;24.150;2022-07-09T06:17:10;23.90;99.90
21518;DHT22;61765;45.794;24.150;2022-07-09T06:21:15;23.90;99.70
21518;DHT22;61765;45.794;24.150;2022-07-09T06:25:21;23.90;99.30
21518;DHT22;61765;45.794;24.150;2022-07-09T06:29:26;24.30;99.20
21518;DHT22;61765;45.794;24.150;2022-07-09T06:33:35;24.80;98.70
21518;DHT22;61765;45.794;24.150;2022-07-09T06:37:40;25.30;97.80
21518;DHT22;61765;45.794;24.150;2022-07-09T06:41:47;25.60;97.00
21518;DHT22;61765;45.794;24.150;2022-07-09T06:45:52;26.20;96.50
21518;DHT22;61765;45.794;24.150;2022-07-09T06:50:03;26.60;95.00
21518;DHT22;61765;45.794;24.150;2022-07-09T06:54:09;26.60;94.60
21518;DHT22;61765;45.794;24.150;2022-07-09T06:58:33;26.50;95.10
21518;DHT22;61765;45.794;24.150;2022-07-09T07:02:39;26.00;94.80
21518;DHT22;61765;45.794;24.150;2022-07-09T07:06:47;25.70;95.20
21518;DHT22;61765;45.794;24.150;2022-07-09T07:10:53;25.50;95.30
21518;DHT22;61765;45.794;24.150;2022-07-09T07:14:58;25.40;95.90
21518;DHT22;61765;45.794;24.150;2022-07-09T07:19:03;25.30;95.60
21518;DHT22;61765;45.794;24.150;2022-07-09T07:23:17;25.30;95.40
21518;DHT22;61765;45.794;24.150;2022-07-09T07:27:40;25.40;95.80
21518;DHT22;61765;45.794;24.150;2022-07-09T07:32:40;25.70;95.60
21518;DHT22;61765;45.794;24.150;2022-07-09T07:36:46;26.20;95.10
21518;DHT22;61765;45.794;24.150;2022-07-09T07:41:01;26.50;94.10
21518;DHT22;61765;45.794;24.150;2022-07-09T07:45:07;26.90;93.40
21518;DHT22;61765;45.794;24.150;2022-07-09T07:49:15;27.20;93.30
21518;DHT22;61765;45.794;24.150;2022-07-09T07:53:21;27.60;92.50
21518;DHT22;61765;45.794;24.150;2022-07-09T07:57:32;27.90;92.20
21518;DHT22;61765;45.794;24.150;2022-07-09T08:01:38;28.00;91.80
21518;DHT22;61765;45.794;24.150;2022-07-09T08:05:47;28.30;89.80
21518;DHT22;61765;45.794;24.150;2022-07-09T08:09:55;28.30;91.10
21518;DHT22;61765;45.794;24.150;2022-07-09T08:14:04;28.70;89.40
21518;DHT22;61765;45.794;24.150;2022-07-09T08:18:11;28.60;89.80
21518;DHT22;61765;45.794;24.150;2022-07-09T08:22:18;28.50;89.40
21518;DHT22;61765;45.794;24.150;2022-07-09T08:26:24;28.60;89.10
21518;DHT22;61765;45.794;24.150;2022-07-09T08:30:32;28.70;90.20
21518;DHT22;61765;45.794;24.150;2022-07-09T08:34:39;28.90;90.20
21518;DHT22;61765;45.794;24.150;2022-07-09T08:38:49;29.00;90.00
21518;DHT22;61765;45.794;24.150;2022-07-09T08:43:02;29.00;89.00
21518;DHT22;61765;45.794;24.150;2022-07-09T08:47:12;28.80;89.60
21518;DHT22;61765;45.794;24.150;2022-07-09T08:51:20;28.70;89.20
21518;DHT22;61765;45.794;24.150;2022-07-09T08:55:37;28.70;90.00
21518;DHT22;61765;45.794;24.150;2022-07-09T08:59:43;28.70;90.00
21518;DHT22;61765;45.794;24.150;2022-07-09T09:03:51;28.70;89.40
21518;DHT22;61765;45.794;24.150;2022-07-09T09:07:57;28.90;90.10
21518;DHT22;61765;45.794;24.150;2022-07-09T09:12:05;29.20;89.20
21518;DHT22;61765;45.794;24.150;2022-07-09T09:16:13;29.30;88.60
21518;DHT22;61765;45.794;24.150;2022-07-09T09:20:22;29.30;88.00
21518;DHT22;61765;45.794;24.150;2022-07-09T09:24:28;29.30;87.60
21518;DHT22;61765;45.794;24.150;2022-07-09T09:28:34;29.20;87.70
21518;DHT22;61765;45.794;24.150;2022-07-09T09:32:40;29.30;87.10
21518;DHT22;61765;45.794;24.150;2022-07-09T09:36:50;29.30;86.60
21518;DHT22;61765;45.794;24.150;2022-07-09T09:41:03;29.40;85.60
21518;DHT22;61765;45.794;24.150;2022-07-09T09:45:12;29.40;85.30
21518;DHT22;61765;45.794;24.150;2022-07-09T09:49:28;29.30;86.60
21518;DHT22;61765;45.794;24.150;2022-07-09T09:53:37;29.10;85.30
21518;DHT22;61765;45.794;24.150;2022-07-09T09:57:44;28.90;85.70
21518;DHT22;61765;45.794;24.150;2022-07-09T10:01:51;28.80;85.40
21518;DHT22;61765;45.794;24.150;2022-07-09T10:05:57;28.70;85.80
21518;DHT22;61765;45.794;24.150;2022-07-09T10:10:06;29.00;85.60
21518;DHT22;61765;45.794;24.150;2022-07-09T10:14:28;29.10;82.30
21518;DHT22;61765;45.794;24.150;2022-07-09T10:18:34;29.30;81.30
21518;DHT22;61765;45.794;24.150;2022-07-09T10:22:41;29.70;83.00
21518;DHT22;61765;45.794;24.150;2022-07-09T10:26:50;30.20;82.00
21518;DHT22;61765;45.794;24.150;2022-07-09T10:30:55;30.70;78.50
21518;DHT22;61765;45.794;24.150;2022-07-09T10:35:11;30.60;76.90
21518;DHT22;61765;45.794;24.150;2022-07-09T10:39:17;30.80;79.00
21518;DHT22;61765;45.794;24.150;2022-07-09T10:43:41;31.10;76.10
21518;DHT22;61765;45.794;24.150;2022-07-09T10:47:53;31.40;71.20
21518;DHT22;61765;45.794;24.150;2022-07-09T10:51:59;31.80;70.20
21518;DHT22;61765;45.794;24.150;2022-07-09T10:56:08;32.20;69.10
21518;DHT22;61765;45.794;24.150;2022-07-09T11:00:19;32.70;69.20
21518;DHT22;61765;45.794;24.150;2022-07-09T11:04:27;32.80;64.70
21518;DHT22;61765;45.794;24.150;2022-07-09T11:08:33;32.30;65.80
21518;DHT22;61765;45.794;24.150;2022-07-09T11:12:47;32.40;66.30
21518;DHT22;61765;45.794;24.150;2022-07-09T11:16:58;32.50;64.20
21518;DHT22;61765;45.794;24.150;2022-07-09T11:21:04;32.70;65.30
21518;DHT22;61765;45.794;24.150;2022-07-09T11:25:09;33.00;64.10
21518;DHT22;61765;45.794;24.150;2022-07-09T11:29:17;33.00;62.00
21518;DHT22;61765;45.794;24.150;2022-07-09T11:33:25;33.30;63.80
21518;DHT22;61765;45.794;24.150;2022-07-09T11:37:51;33.70;63.40
21518;DHT22;61765;45.794;24.150;2022-07-09T11:41:59;34.60;61.70
21518;DHT22;61765;45.794;24.150;2022-07-09T11:46:05;35.20;58.80
21518;DHT22;61765;45.794;24.150;2022-07-09T11:50:16;35.80;57.70
21518;DHT22;61765;45.794;24.150;2022-07-09T11:54:26;36.80;57.80
21518;DHT22;61765;45.794;24.150;2022-07-09T11:58:32;38.30;55.40
21518;DHT22;61765;45.794;24.150;2022-07-09T12:02:38;40.50;50.70
21518;DHT22;61765;45.794;24.150;2022-07-09T12:06:50;42.10;48.70
21518;DHT22;61765;45.794;24.150;2022-07-09T12:10:57;43.80;44.40
21518;DHT22;61765;45.794;24.150;2022-07-09T12:15:04;45.70;42.00
21518;DHT22;61765;45.794;24.150;2022-07-09T12:19:10;47.10;40.20
21518;DHT22;61765;45.794;24.150;2022-07-09T12:23:19;47.90;38.00
21518;DHT22;61765;45.794;24.150;2022-07-09T12:27:24;47.80;36.90
21518;DHT22;61765;45.794;24.150;2022-07-09T12:31:29;48.20;37.20
21518;DHT22;61765;45.794;24.150;2022-07-09T12:35:38;49.00;35.60
21518;DHT22;61765;45.794;24.150;2022-07-09T12:39:46;49.20;35.70
21518;DHT22;61765;45.794;24.150;2022-07-09T12:43:53;50.20;34.70
21518;DHT22;61765;45.794;24.150;2022-07-09T12:47:58;50.40;34.20
21518;DHT22;61765;45.794;24.150;2022-07-09T12:52:04;49.00;34.90
21518;DHT22;61765;45.794;24.150;2022-07-09T12:56:13;47.80;36.30
21518;DHT22;61765;45.794;24.150;2022-07-09T13:00:20;47.10;36.70
21518;DHT22;61765;45.794;24.150;2022-07-09T13:04:27;45.90;37.10
21518;DHT22;61765;45.794;24.150;2022-07-09T13:08:32;44.20;38.10
21518;DHT22;61765;45.794;24.150;2022-07-09T13:12:41;43.30;39.50
21518;DHT22;61765;45.794;24.150;2022-07-09T13:16:47;42.50;40.00
21518;DHT22;61765;45.794;24.150;2022-07-09T13:21:12;40.80;41.20
21518;DHT22;61765;45.794;24.150;2022-07-09T13:25:18;38.80;43.90
21518;DHT22;61765;45.794;24.150;2022-07-09T13:29:26;37.20;46.90
21518;DHT22;61765;45.794;24.150;2022-07-09T13:33:31;35.70;48.10
21518;DHT22;61765;45.794;24.150;2022-07-09T13:37:37;34.50;50.30
21518;DHT22;61765;45.794;24.150;2022-07-09T13:41:42;33.70;51.90
21518;DHT22;61765;45.794;24.150;2022-07-09T13:45:50;33.10;53.20
21518;DHT22;61765;45.794;24.150;2022-07-09T13:49:57;32.60;53.90
21518;DHT22;61765;45.794;24.150;2022-07-09T13:54:03;32.20;54.20
21518;DHT22;61765;45.794;24.150;2022-07-09T13:58:11;31.70;55.50
21518;DHT22;61765;45.794;24.150;2022-07-09T14:02:19;31.40;56.40
21518;DHT22;61765;45.794;24.150;2022-07-09T14:06:25;31.20;57.30
21518;DHT22;61765;45.794;24.150;2022-07-09T14:10:47;31.00;57.80
21518;DHT22;61765;45.794;24.150;2022-07-09T14:14:55;30.80;58.10
21518;DHT22;61765;45.794;24.150;2022-07-09T14:19:04;30.70;58.10
21518;DHT22;61765;45.794;24.150;2022-07-09T14:23:09;31.10;58.20
21518;DHT22;61765;45.794;24.150;2022-07-09T14:27:15;32.40;56.90
21518;DHT22;61765;45.794;24.150;2022-07-09T14:31:22;33.40;55.50
21518;DHT22;61765;45.794;24.150;2022-07-09T14:35:31;33.50;54.70
21518;DHT22;61765;45.794;24.150;2022-07-09T14:39:39;33.30;54.70
21518;DHT22;61765;45.794;24.150;2022-07-09T14:43:45;32.80;55.80
21518;DHT22;61765;45.794;24.150;2022-07-09T14:47:50;32.20;56.90
21518;DHT22;61765;45.794;24.150;2022-07-09T14:51:59;31.60;57.80
21518;DHT22;61765;45.794;24.150;2022-07-09T14:56:06;31.10;58.70
21518;DHT22;61765;45.794;24.150;2022-07-09T15:00:16;30.60;59.10
21518;DHT22;61765;45.794;24.150;2022-07-09T15:04:22;30.20;59.30
21518;DHT22;61765;45.794;24.150;2022-07-09T15:08:32;30.00;60.30
21518;DHT22;61765;45.794;24.150;2022-07-09T15:12:37;29.80;60.60
21518;DHT22;61765;45.794;24.150;2022-07-09T15:16:43;29.70;61.50
21518;DHT22;61765;45.794;24.150;2022-07-09T15:20:50;29.50;61.80
21518;DHT22;61765;45.794;24.150;2022-07-09T15:24:58;29.30;62.00
21518;DHT22;61765;45.794;24.150;2022-07-09T15:29:06;29.30;62.50
21518;DHT22;61765;45.794;24.150;2022-07-09T15:33:12;29.20;62.60
21518;DHT22;61765;45.794;24.150;2022-07-09T15:37:18;29.10;63.00
21518;DHT22;61765;45.794;24.150;2022-07-09T15:41:26;29.20;62.80
21518;DHT22;61765;45.794;24.150;2022-07-09T15:45:44;29.30;62.90
21518;DHT22;61765;45.794;24.150;2022-07-09T15:50:10;29.10;63.10
21518;DHT22;61765;45.794;24.150;2022-07-09T15:54:15;28.90;63.10
21518;DHT22;61765;45.794;24.150;2022-07-09T15:58:24;28.60;63.50
21518;DHT22;61765;45.794;24.150;2022-07-09T16:02:30;28.40;64.50
21518;DHT22;61765;45.794;24.150;2022-07-09T16:06:36;28.30;64.80
21518;DHT22;61765;45.794;24.150;2022-07-09T16:10:42;28.10;65.50
21518;DHT22;61765;45.794;24.150;2022-07-09T16:14:52;27.90;65.80
21518;DHT22;61765;45.794;24.150;2022-07-09T16:18:58;27.80;67.00
21518;DHT22;61765;45.794;24.150;2022-07-09T16:23:03;27.70;67.80
21518;DHT22;61765;45.794;24.150;2022-07-09T16:27:08;27.60;69.00
21518;DHT22;61765;45.794;24.150;2022-07-09T16:31:17;27.60;70.20
21518;DHT22;61765;45.794;24.150;2022-07-09T16:35:23;27.50;71.70
21518;DHT22;61765;45.794;24.150;2022-07-09T16:39:29;27.40;72.80
21518;DHT22;61765;45.794;24.150;2022-07-09T16:43:35;27.30;73.70
21518;DHT22;61765;45.794;24.150;2022-07-09T16:47:43;27.10;74.70
21518;DHT22;61765;45.794;24.150;2022-07-09T16:51:48;26.90;76.40
21518;DHT22;61765;45.794;24.150;2022-07-09T16:55:54;26.60;77.80
21518;DHT22;61765;45.794;24.150;2022-07-09T16:59:59;26.30;78.80
21518;DHT22;61765;45.794;24.150;2022-07-09T17:04:18;26.00;79.60
21518;DHT22;61765;45.794;24.150;2022-07-09T17:08:23;25.60;80.60
21518;DHT22;61765;45.794;24.150;2022-07-09T17:12:28;25.30;81.40
21518;DHT22;61765;45.794;24.150;2022-07-09T17:16:35;25.00;83.20
21518;DHT22;61765;45.794;24.150;2022-07-09T17:20:43;24.80;85.80
21518;DHT22;61765;45.794;24.150;2022-07-09T17:24:48;24.50;87.70
21518;DHT22;61765;45.794;24.150;2022-07-09T17:28:54;24.30;88.00
21518;DHT22;61765;45.794;24.150;2022-07-09T17:32:59;24.20;89.20
21518;DHT22;61765;45.794;24.150;2022-07-09T17:37:07;24.00;90.00
21518;DHT22;61765;45.794;24.150;2022-07-09T17:41:13;23.80;91.10
21518;DHT22;61765;45.794;24.150;2022-07-09T17:45:19;23.70;92.80
21518;DHT22;61765;45.794;24.150;2022-07-09T17:49:24;23.50;93.30
21518;DHT22;61765;45.794;24.150;2022-07-09T17:53:32;23.30;94.30
21518;DHT22;61765;45.794;24.150;2022-07-09T17:57:38;23.10;95.20
21518;DHT22;61765;45.794;24.150;2022-07-09T18:01:43;22.90;96.00
21518;DHT22;61765;45.794;24.150;2022-07-09T18:05:49;22.70;96.40
21518;DHT22;61765;45.794;24.150;2022-07-09T18:09:57;22.60;97.40
21518;DHT22;61765;45.794;24.150;2022-07-09T18:14:03;22.30;98.00
21518;DHT22;61765;45.794;24.150;2022-07-09T18:18:08;22.20;98.70
21518;DHT22;61765;45.794;24.150;2022-07-09T18:22:17;21.90;98.60
21518;DHT22;61765;45.794;24.150;2022-07-09T18:26:25;21.70;99.60
21518;DHT22;61765;45.794;24.150;2022-07-09T18:30:31;21.70;99.90
21518;DHT22;61765;45.794;24.150;2022-07-09T18:34:36;21.60;99.90
21518;DHT22;61765;45.794;24.150;2022-07-09T18:38:42;21.30;99.90
21518;DHT22;61765;45.794;24.150;2022-07-09T18:42:52;21.20;99.90
21518;DHT22;61765;45.794;24.150;2022-07-09T18:46:59;21.20;99.90
21518;DHT22;61765;45.794;24.150;2022-07-09T18:51:05;21.20;99.90
21518;DHT22;61765;45.794;24.150;2022-07-09T18:55:10;21.20;99.90
21518;DHT22;61765;45.794;24.150;2022-07-09T18:59:18;21.20;99.90
21518;DHT22;61765;45.794;24.150;2022-07-09T19:03:27;21.30;99.90
21518;DHT22;61765;45.794;24.150;2022-07-09T19:07:32;21.30;99.90
21518;DHT22;61765;45.794;24.150;2022-07-09T19:11:38;21.30;99.90
21518;DHT22;61765;45.794;24.150;2022-07-09T19:15:48;21.30;99.90
21518;DHT22;61765;45.794;24.150;2022-07-09T19:19:53;21.40;99.90
21518;DHT22;61765;45.794;24.150;2022-07-09T19:23:59;21.50;99.90
21518;DHT22;61765;45.794;24.150;2022-07-09T19:28:04;21.50;99.90
21518;DHT22;61765;45.794;24.150;2022-07-09T19:32:13;21.60;99.90
21518;DHT22;61765;45.794;24.150;2022-07-09T19:36:32;21.60;99.90
21518;DHT22;61765;45.794;24.150;2022-07-09T19:40:38;21.60;99.90
21518;DHT22;61765;45.794;24.150;2022-07-09T19:44:44;21.60;99.90
21518;DHT22;61765;45.794;24.150;2022-07-09T19:48:52;21.50;99.90
21518;DHT22;61765;45.794;24.150;2022-07-09T19:52:57;21.30;99.90
21518;DHT22;61765;45.794;24.150;2022-07-09T19:57:03;21.30;99.90
21518;DHT22;61765;45.794;24.150;2022-07-09T20:01:09;21.30;99.90
21518;DHT22;61765;45.794;24.150;2022-07-09T20:05:17;21.30;99.90
21518;DHT22;61765;45.794;24.150;2022-07-09T20:09:23;21.30;99.90
21518;DHT22;61765;45.794;24.150;2022-07-09T20:13:28;21.30;99.90
21518;DHT22;61765;45.794;24.150;2022-07-09T20:17:34;21.30;99.90
21518;DHT22;61765;45.794;24.150;2022-07-09T20:21:42;21.30;99.90
21518;DHT22;61765;45.794;24.150;2022-07-09T20:25:47;21.30;99.90
21518;DHT22;61765;45.794;24.150;2022-07-09T20:29:52;21.30;99.90
21518;DHT22;61765;45.794;24.150;2022-07-09T20:33:58;21.30;99.90
21518;DHT22;61765;45.794;24.150;2022-07-09T20:38:06;21.40;99.90
21518;DHT22;61765;45.794;24.150;2022-07-09T20:42:11;21.40;99.90
21518;DHT22;61765;45.794;24.150;2022-07-09T20:46:17;21.40;99.90
21518;DHT22;61765;45.794;24.150;2022-07-09T20:50:22;21.40;99.90
21518;DHT22;61765;45.794;24.150;2022-07-09T20:54:31;21.40;99.90
21518;DHT22;61765;45.794;24.150;2022-07-09T20:58:36;21.50;99.90
21518;DHT22;61765;45.794;24.150;2022-07-09T21:02:42;21.50;99.90
21518;DHT22;61765;45.794;24.150;2022-07-09T21:06:48;21.50;99.90
21518;DHT22;61765;45.794;24.150;2022-07-09T21:10:56;21.40;99.90
21518;DHT22;61765;45.794;24.150;2022-07-09T21:15:02;21.40;99.90
21518;DHT22;61765;45.794;24.150;2022-07-09T21:19:07;21.40;99.90
21518;DHT22;61765;45.794;24.150;2022-07-09T21:23:13;21.30;99.90
21518;DHT22;61765;45.794;24.150;2022-07-09T21:27:21;21.20;99.90
21518;DHT22;61765;45.794;24.150;2022-07-09T21:31:26;21.20;99.90
21518;DHT22;61765;45.794;24.150;2022-07-09T21:35:32;21.10;99.90
21518;DHT22;61765;45.794;24.150;2022-07-09T21:39:37;21.10;99.90
21518;DHT22;61765;45.794;24.150;2022-07-09T21:43:45;20.80;99.90
21518;DHT22;61765;45.794;24.150;2022-07-09T21:47:51;20.80;99.90
21518;DHT22;61765;45.794;24.150;2022-07-09T21:51:56;20.40;99.90
21518;DHT22;61765;45.794;24.150;2022-07-09T21:56:02;20.30;99.90
21518;DHT22;61765;45.794;24.150;2022-07-09T22:00:14;20.40;99.90
21518;DHT22;61765;45.794;24.150;2022-07-09T22:04:20;20.60;99.90
21518;DHT22;61765;45.794;24.150;2022-07-09T22:08:28;20.70;99.90
21518;DHT22;61765;45.794;24.150;2022-07-09T22:12:33;20.80;99.90
21518;DHT22;61765;45.794;24.150;2022-07-09T22:16:42;20.80;99.90
21518;DHT22;61765;45.794;24.150;2022-07-09T22:20:47;20.60;99.90
21518;DHT22;61765;45.794;24.150;2022-07-09T22:24:53;20.70;99.90
21518;DHT22;61765;45.794;24.150;2022-07-09T22:28:58;20.70;99.90
21518;DHT22;61765;45.794;24.150;2022-07-09T22:33:06;20.70;99.90
21518;DHT22;61765;45.794;24.150;2022-07-09T22:37:12;20.80;99.90
21518;DHT22;61765;45.794;24.150;2022-07-09T22:41:18;20.90;99.90
21518;DHT22;61765;45.794;24.150;2022-07-09T22:45:24;20.90;99.90
21518;DHT22;61765;45.794;24.150;2022-07-09T22:49:32;20.90;99.90
21518;DHT22;61765;45.794;24.150;2022-07-09T22:53:37;20.80;99.90
21518;DHT22;61765;45.794;24.150;2022-07-09T22:57:43;20.90;99.90
21518;DHT22;61765;45.794;24.150;2022-07-09T23:01:49;20.80;99.90
21518;DHT22;61765;45.794;24.150;2022-07-09T23:05:58;20.80;99.90
21518;DHT22;61765;45.794;24.150;2022-07-09T23:10:05;20.80;99.90
21518;DHT22;61765;45.794;24.150;2022-07-09T23:14:10;20.80;99.90
21518;DHT22;61765;45.794;24.150;2022-07-09T23:18:16;20.90;99.90
21518;DHT22;61765;45.794;24.150;2022-07-09T23:22:24;20.90;99.90
21518;DHT22;61765;45.794;24.150;2022-07-09T23:26:29;20.90;99.90
21518;DHT22;61765;45.794;24.150;2022-07-09T23:30:35;20.90;99.90
21518;DHT22;61765;45.794;24.150;2022-07-09T23:34:40;20.90;99.90
21518;DHT22;61765;45.794;24.150;2022-07-09T23:38:49;20.90;99.90
21518;DHT22;61765;45.794;24.150;2022-07-09T23:42:54;20.90;99.90
21518;DHT22;61765;45.794;24.150;2022-07-09T23:47:00;20.90;99.90
21518;DHT22;61765;45.794;24.150;2022-07-09T23:51:05;20.90;99.90
21518;DHT22;61765;45.794;24.150;2022-07-09T23:55:14;20.90;99.90
21518;DHT22;61765;45.794;24.150;2022-07-09T23:59:19;20.90;99.90
